createdAt,value
2022-08-30T00:01:33.100Z,8.53
2022-08-30T00:04:07.251Z,8.00
2022-08-30T00:06:38.082Z,7.10
2022-08-30T00:09:09.035Z,7.20
2022-08-30T00:11:39.962Z,7.30
2022-08-30T00:14:10.886Z,7.20
2022-08-30T00:16:41.746Z,7.70
2022-08-30T00:19:12.657Z,8.27
2022-08-30T00:21:43.560Z,8.77
2022-08-30T00:24:15.691Z,7.43
2022-08-30T00:26:46.551Z,7.37
2022-08-30T00:29:17.518Z,7.40
2022-08-30T00:31:48.466Z,6.97
2022-08-30T00:34:19.388Z,6.80
2022-08-30T00:36:50.238Z,7.60
2022-08-30T00:39:21.191Z,7.80
2022-08-30T00:41:52.214Z,7.97
2022-08-30T00:44:24.168Z,8.20
2022-08-30T00:46:55.033Z,7.30
2022-08-30T00:49:26.269Z,8.33
2022-08-30T00:51:58.159Z,7.73
2022-08-30T00:54:31.143Z,7.83
2022-08-30T00:57:03.876Z,8.07
2022-08-30T00:59:34.898Z,8.40
2022-08-30T01:02:06.637Z,8.03
2022-08-30T01:04:40.514Z,7.80
2022-08-30T01:07:11.594Z,8.50
2022-08-30T01:09:42.734Z,8.17
2022-08-30T01:12:14.237Z,8.20
2022-08-30T01:14:48.286Z,8.20
2022-08-30T01:17:20.551Z,7.50
2022-08-30T01:20:02.311Z,7.53
2022-08-30T01:23:27.566Z,7.60
2022-08-30T01:25:59.880Z,7.60
2022-08-30T01:28:31.367Z,7.80
2022-08-30T01:31:02.601Z,7.80
2022-08-30T01:33:33.662Z,8.23
2022-08-30T01:36:12.256Z,7.73
2022-08-30T01:38:49.674Z,7.57
2022-08-30T01:41:31.801Z,8.23
2022-08-30T01:44:08.742Z,7.50
2022-08-30T01:46:45.619Z,7.53
2022-08-30T01:49:23.069Z,8.13
2022-08-30T01:52:01.148Z,8.17
2022-08-30T01:54:38.006Z,7.97
2022-08-30T01:57:13.908Z,8.23
2022-08-30T01:59:47.752Z,7.80
2022-08-30T02:02:24.244Z,8.17
2022-08-30T02:04:58.518Z,8.50
2022-08-30T02:07:29.738Z,9.00
2022-08-30T02:10:00.628Z,8.00
2022-08-30T02:12:31.513Z,8.93
2022-08-30T02:15:02.420Z,8.73
2022-08-30T02:17:33.302Z,8.10
2022-08-30T02:20:06.944Z,7.20
2022-08-30T02:22:38.164Z,7.93
2022-08-30T02:25:18.714Z,8.93
2022-08-30T02:27:52.088Z,7.50
2022-08-30T02:30:23.190Z,7.50
2022-08-30T02:32:54.153Z,8.27
2022-08-30T02:35:26.535Z,8.00
2022-08-30T02:37:57.465Z,7.87
2022-08-30T02:40:28.422Z,8.37
2022-08-30T02:42:59.388Z,8.80
2022-08-30T02:45:30.372Z,8.37
2022-08-30T02:48:01.384Z,7.80
2022-08-30T02:50:32.676Z,9.17
2022-08-30T02:53:03.554Z,7.93
2022-08-30T02:55:34.499Z,8.77
2022-08-30T02:58:06.071Z,8.77
2022-08-30T03:00:37.496Z,8.20
2022-08-30T03:03:08.782Z,8.20
2022-08-30T03:05:40.120Z,8.77
2022-08-30T03:08:13.075Z,8.50
2022-08-30T03:10:44.070Z,9.63
2022-08-30T03:13:15.534Z,9.17
2022-08-30T03:15:49.071Z,8.87
2022-08-30T03:18:21.795Z,8.73
2022-08-30T03:20:54.388Z,8.87
2022-08-30T03:23:25.793Z,8.60
2022-08-30T03:25:57.874Z,8.50
2022-08-30T03:28:29.637Z,9.73
2022-08-30T03:31:00.907Z,9.50
2022-08-30T03:33:32.091Z,8.80
2022-08-30T03:36:03.680Z,10.10
2022-08-30T03:38:34.572Z,9.83
2022-08-30T03:41:05.973Z,8.83
2022-08-30T03:43:38.767Z,9.10
2022-08-30T03:46:12.507Z,8.60
2022-08-30T03:48:44.019Z,9.40
2022-08-30T03:51:14.912Z,9.23
2022-08-30T03:53:45.762Z,8.50
2022-08-30T03:56:17.290Z,8.60
2022-08-30T03:58:48.672Z,8.50
2022-08-30T04:01:19.801Z,8.70
2022-08-30T04:03:50.847Z,8.70
2022-08-30T04:06:21.707Z,8.83
2022-08-30T04:08:52.545Z,9.30
2022-08-30T04:11:23.473Z,8.47
2022-08-30T04:13:56.137Z,8.93
2022-08-30T04:16:27.437Z,8.40
2022-08-30T04:18:58.329Z,9.33
2022-08-30T04:21:29.263Z,8.40
2022-08-30T04:24:00.192Z,8.37
2022-08-30T04:26:31.095Z,8.73
2022-08-30T04:29:02.011Z,8.50
2022-08-30T04:31:33.051Z,9.03
2022-08-30T04:34:04.028Z,8.57
2022-08-30T04:36:34.913Z,8.93
2022-08-30T04:39:06.819Z,8.80
2022-08-30T04:41:40.878Z,9.07
2022-08-30T04:44:14.280Z,8.80
2022-08-30T04:46:50.442Z,9.27
2022-08-30T04:49:21.707Z,8.80
2022-08-30T04:51:52.626Z,7.83
2022-08-30T04:54:23.664Z,9.40
2022-08-30T04:56:54.703Z,8.63
2022-08-30T04:59:25.592Z,8.30
2022-08-30T05:01:56.468Z,8.73
2022-08-30T05:04:27.473Z,8.30
2022-08-30T05:06:58.386Z,8.53
2022-08-30T05:09:29.236Z,8.50
2022-08-30T05:12:00.149Z,8.80
2022-08-30T05:14:31.020Z,9.87
2022-08-30T05:17:01.865Z,8.60
2022-08-30T05:19:33.809Z,9.20
2022-08-30T05:22:04.934Z,9.20
2022-08-30T05:24:36.389Z,9.17
2022-08-30T05:27:07.280Z,10.33
2022-08-30T05:29:38.173Z,12.87
2022-08-30T05:32:09.255Z,11.97
2022-08-30T05:34:40.545Z,10.63
2022-08-30T05:37:11.439Z,12.00
2022-08-30T05:39:51.312Z,11.63
2022-08-30T05:42:22.738Z,12.47
2022-08-30T05:44:54.702Z,12.23
2022-08-30T05:47:25.945Z,11.50
2022-08-30T05:49:56.844Z,10.43
2022-08-30T05:52:28.105Z,13.30
2022-08-30T05:54:59.576Z,11.27
2022-08-30T05:57:34.347Z,10.73
2022-08-30T06:00:11.356Z,10.10
2022-08-30T06:02:43.276Z,11.30
2022-08-30T06:05:14.649Z,9.60
2022-08-30T06:07:45.701Z,9.80
2022-08-30T06:10:16.887Z,11.10
2022-08-30T06:12:48.245Z,10.23
2022-08-30T06:15:19.882Z,10.07
2022-08-30T06:17:51.440Z,11.63
2022-08-30T06:20:22.953Z,10.13
2022-08-30T06:22:53.854Z,10.57
2022-08-30T06:25:27.309Z,9.90
2022-08-30T06:28:12.722Z,10.93
2022-08-30T06:30:44.141Z,9.57
2022-08-30T06:33:15.083Z,9.50
2022-08-30T06:35:58.740Z,9.77
2022-08-30T06:38:30.590Z,9.80
2022-08-30T06:41:10.412Z,8.90
2022-08-30T06:43:45.517Z,9.93
2022-08-30T06:46:45.585Z,10.60
2022-08-30T06:49:17.251Z,9.57
2022-08-30T06:51:48.223Z,9.90
2022-08-30T06:54:19.371Z,8.20
2022-08-30T06:56:58.859Z,9.60
2022-08-30T06:59:31.246Z,8.27
2022-08-30T07:02:02.155Z,8.20
2022-08-30T07:04:33.537Z,8.97
2022-08-30T07:07:04.962Z,8.20
2022-08-30T07:09:44.669Z,8.37
2022-08-30T07:12:25.856Z,9.00
2022-08-30T07:14:56.939Z,8.43
2022-08-30T07:17:46.484Z,9.43
2022-08-30T07:20:18.495Z,9.60
2022-08-30T07:22:49.544Z,8.77
2022-08-30T07:25:20.642Z,8.20
2022-08-30T07:27:52.140Z,8.40
2022-08-30T07:30:23.290Z,8.30
2022-08-30T07:32:54.265Z,8.13
2022-08-30T07:35:25.606Z,8.70
2022-08-30T07:37:56.453Z,8.63
2022-08-30T07:40:27.677Z,7.87
2022-08-30T07:43:02.024Z,7.90
2022-08-30T07:45:33.678Z,7.00
2022-08-30T07:48:07.327Z,7.80
2022-08-30T07:50:42.637Z,8.40
2022-08-30T07:53:13.845Z,7.40
2022-08-30T07:55:44.815Z,6.73
2022-08-30T07:58:15.749Z,6.67
2022-08-30T08:00:46.739Z,7.30
2022-08-30T08:03:17.663Z,8.10
2022-08-30T08:05:48.724Z,6.77
2022-08-30T08:08:20.664Z,6.53
2022-08-30T08:10:51.698Z,6.20
2022-08-30T08:13:23.622Z,5.77
2022-08-30T08:15:59.148Z,5.77
2022-08-30T08:18:31.750Z,6.93
2022-08-30T08:21:02.711Z,5.13
2022-08-30T08:23:33.628Z,5.50
2022-08-30T08:26:05.473Z,6.20
2022-08-30T08:28:36.399Z,7.30
2022-08-30T08:31:33.114Z,6.43
2022-08-30T08:34:05.992Z,6.30
2022-08-30T08:36:37.390Z,6.80
2022-08-30T08:39:09.715Z,5.77
2022-08-30T08:42:04.082Z,6.40
2022-08-30T08:44:57.067Z,5.90
2022-08-30T08:48:32.065Z,6.73
2022-08-30T08:51:40.282Z,6.33
2022-08-30T08:54:30.828Z,6.20
2022-08-30T08:57:02.149Z,6.00
2022-08-30T08:59:33.188Z,5.83
2022-08-30T09:02:27.244Z,5.90
2022-08-30T09:05:02.487Z,6.03
2022-08-30T09:07:40.616Z,6.40
2022-08-30T09:10:11.749Z,8.77
2022-08-30T09:12:44.785Z,6.53
2022-08-30T09:15:24.410Z,6.30
2022-08-30T09:18:02.419Z,6.23
2022-08-30T09:20:43.288Z,6.17
2022-08-30T09:23:28.353Z,5.40
2022-08-30T09:26:05.430Z,6.17
2022-08-30T09:28:50.327Z,5.47
2022-08-30T09:31:28.065Z,5.80
2022-08-30T09:34:08.724Z,6.10
2022-08-30T09:36:49.721Z,5.87
2022-08-30T09:39:33.666Z,6.07
2022-08-30T09:42:26.415Z,5.93
2022-08-30T09:45:10.489Z,6.33
2022-08-30T09:47:43.966Z,5.57
2022-08-30T09:50:19.941Z,6.27
2022-08-30T09:53:00.103Z,6.60
2022-08-30T09:56:01.881Z,5.93
2022-08-30T09:59:05.919Z,6.10
2022-08-30T10:02:04.803Z,6.37
2022-08-30T10:04:46.230Z,6.20
2022-08-30T10:07:21.120Z,5.67
2022-08-30T10:10:13.127Z,5.20
2022-08-30T10:12:59.441Z,5.70
2022-08-30T10:15:41.446Z,6.20
2022-08-30T10:18:30.869Z,6.00
2022-08-30T10:21:29.178Z,6.80
2022-08-30T10:24:21.011Z,5.40
2022-08-30T10:26:59.116Z,5.13
2022-08-30T10:30:07.986Z,5.70
2022-08-30T10:33:08.782Z,5.60
2022-08-30T10:35:48.361Z,5.53
2022-08-30T10:38:27.378Z,4.80
2022-08-30T10:41:28.016Z,5.90
2022-08-30T10:44:04.342Z,5.60
2022-08-30T10:47:18.600Z,4.70
2022-08-30T10:50:14.005Z,4.90
2022-08-30T10:52:53.319Z,4.50
2022-08-30T10:55:34.554Z,4.17
2022-08-30T10:58:06.957Z,5.20
2022-08-30T11:01:16.899Z,4.90
2022-08-30T11:04:35.259Z,5.27
2022-08-30T11:07:28.752Z,4.83
2022-08-30T11:10:23.793Z,3.93
2022-08-30T11:13:33.822Z,4.07
2022-08-30T11:16:07.943Z,3.90
2022-08-30T11:18:59.008Z,4.17
2022-08-30T11:21:40.509Z,4.00
2022-08-30T11:24:25.598Z,3.80
2022-08-30T11:27:01.281Z,4.13
2022-08-30T11:29:44.900Z,4.77
2022-08-30T11:32:18.303Z,4.30
2022-08-30T11:34:55.848Z,4.43
2022-08-30T11:37:42.941Z,5.10
2022-08-30T11:40:22.813Z,4.93
2022-08-30T11:42:55.920Z,4.43
2022-08-30T11:45:28.376Z,4.83
2022-08-30T11:48:10.571Z,4.97
2022-08-30T11:51:34.779Z,4.37
2022-08-30T11:54:30.275Z,4.70
2022-08-30T11:57:42.015Z,4.93
2022-08-30T12:00:35.443Z,5.10
2022-08-30T12:03:15.223Z,5.87
2022-08-30T12:05:53.397Z,5.23
2022-08-30T12:08:34.106Z,6.03
2022-08-30T12:11:11.064Z,5.20
2022-08-30T12:13:44.760Z,5.23
2022-08-30T12:16:59.524Z,4.87
2022-08-30T12:19:33.644Z,5.00
2022-08-30T12:22:07.232Z,4.80
2022-08-30T12:24:50.451Z,5.33
2022-08-30T12:27:34.074Z,4.87
2022-08-30T12:30:08.831Z,4.90
2022-08-30T12:32:48.794Z,5.00
2022-08-30T12:35:27.980Z,4.67
2022-08-30T12:38:13.447Z,5.60
2022-08-30T12:40:58.976Z,4.80
2022-08-30T12:43:40.424Z,4.43
2022-08-30T12:46:17.459Z,5.40
2022-08-30T12:48:49.254Z,4.80
2022-08-30T12:51:37.563Z,5.17
2022-08-30T12:54:24.772Z,4.60
2022-08-30T12:57:18.948Z,6.03
2022-08-30T13:00:01.709Z,4.77
2022-08-30T13:02:48.078Z,5.13
2022-08-30T13:05:45.023Z,5.37
2022-08-30T13:08:34.510Z,4.77
2022-08-30T13:11:32.050Z,5.50
2022-08-30T13:14:43.687Z,4.40
2022-08-30T13:17:28.816Z,5.10
2022-08-30T13:20:17.800Z,4.97
2022-08-30T13:23:09.332Z,4.60
2022-08-30T13:25:40.491Z,4.87
2022-08-30T13:28:11.351Z,4.90
2022-08-30T13:30:42.272Z,4.97
2022-08-30T13:33:13.371Z,4.60
2022-08-30T13:35:44.356Z,4.67
2022-08-30T13:38:15.270Z,5.20
2022-08-30T13:40:46.250Z,5.23
2022-08-30T13:43:17.294Z,4.37
2022-08-30T13:45:49.263Z,5.00
2022-08-30T13:48:24.777Z,4.20
2022-08-30T13:50:57.052Z,4.40
2022-08-30T13:56:19.034Z,5.50
2022-08-30T13:58:52.366Z,4.60
2022-08-30T14:01:23.965Z,4.37
2022-08-30T14:09:38.476Z,4.70
2022-08-30T14:12:10.368Z,4.53
2022-08-30T14:14:43.247Z,4.30
2022-08-30T14:17:15.154Z,3.90
2022-08-30T14:19:46.084Z,4.93
2022-08-30T14:22:20.678Z,4.10
2022-08-30T14:24:51.603Z,4.30
2022-08-30T14:27:22.551Z,4.77
2022-08-30T14:29:58.320Z,4.57
2022-08-30T14:32:29.569Z,4.67
2022-08-30T14:35:00.478Z,5.27
2022-08-30T14:37:31.580Z,5.40
2022-08-30T14:40:03.046Z,4.33
2022-08-30T14:42:34.089Z,4.77
2022-08-30T14:45:06.201Z,4.57
2022-08-30T14:47:37.488Z,4.97
2022-08-30T14:50:09.447Z,4.70
2022-08-30T14:52:40.346Z,5.20
2022-08-30T14:55:12.597Z,4.67
2022-08-30T14:57:43.492Z,4.40
2022-08-30T15:00:16.007Z,4.73
2022-08-30T15:02:46.845Z,5.17
2022-08-30T15:05:18.886Z,5.23
2022-08-30T15:07:51.531Z,4.53
2022-08-30T15:10:22.618Z,4.80
2022-08-30T15:12:53.773Z,4.90
2022-08-30T15:15:25.310Z,4.97
2022-08-30T15:17:56.166Z,4.40
2022-08-30T15:20:27.592Z,4.37
2022-08-30T15:22:58.459Z,4.57
2022-08-30T15:25:29.382Z,4.30
2022-08-30T15:28:00.250Z,4.53
2022-08-30T15:30:31.652Z,4.30
2022-08-30T15:33:03.440Z,4.80
2022-08-30T15:35:34.338Z,4.97
2022-08-30T15:38:05.291Z,4.77
2022-08-30T15:40:36.715Z,4.53
2022-08-30T15:43:07.721Z,4.87
2022-08-30T15:45:38.655Z,4.60
2022-08-30T15:48:09.565Z,5.10
2022-08-30T15:50:40.511Z,4.90
2022-08-30T15:53:13.234Z,4.77
2022-08-30T15:55:44.245Z,5.07
2022-08-30T15:58:15.116Z,4.23
2022-08-30T16:00:47.211Z,4.80
2022-08-30T16:03:18.238Z,4.77
2022-08-30T16:05:50.845Z,4.33
2022-08-30T16:08:24.131Z,5.00
2022-08-30T16:10:56.806Z,5.00
2022-08-30T16:13:27.723Z,4.90
2022-08-30T16:16:05.130Z,4.90
2022-08-30T16:18:37.194Z,5.40
2022-08-30T16:21:22.076Z,5.33
2022-08-30T16:24:00.237Z,4.70
2022-08-30T16:26:33.809Z,5.63
2022-08-30T16:29:07.378Z,4.90
2022-08-30T16:31:43.572Z,5.07
2022-08-30T16:34:17.584Z,5.40
2022-08-30T16:36:48.680Z,5.20
2022-08-30T16:39:19.583Z,23.73
2022-08-30T16:41:51.298Z,5.00
2022-08-30T16:44:22.196Z,5.00
2022-08-30T16:46:57.651Z,5.53
2022-08-30T16:49:28.562Z,4.87
2022-08-30T16:51:59.442Z,6.13
2022-08-30T16:54:30.921Z,4.90
2022-08-30T16:57:01.829Z,5.50
2022-08-30T16:59:32.904Z,5.07
2022-08-30T17:02:04.159Z,5.20
2022-08-30T17:04:35.385Z,5.17
2022-08-30T17:07:06.713Z,5.33
2022-08-30T17:09:45.201Z,5.53
2022-08-30T17:12:16.154Z,6.03
2022-08-30T17:14:47.451Z,4.73
2022-08-30T17:17:22.163Z,5.13
2022-08-30T17:19:53.143Z,5.47
2022-08-30T17:22:24.038Z,5.50
2022-08-30T17:24:57.158Z,5.20
2022-08-30T17:27:29.411Z,4.57
2022-08-30T17:30:00.357Z,5.27
2022-08-30T17:32:31.257Z,6.17
2022-08-30T17:35:02.954Z,5.80
2022-08-30T17:37:37.123Z,5.53
2022-08-30T17:40:14.391Z,5.20
2022-08-30T17:42:46.266Z,6.07
2022-08-30T17:45:18.724Z,6.40
2022-08-30T17:47:49.837Z,6.07
2022-08-30T17:50:21.235Z,5.60
2022-08-30T17:52:53.638Z,5.80
2022-08-30T17:55:24.624Z,5.77
2022-08-30T17:57:55.547Z,5.87
2022-08-30T18:00:26.508Z,6.13
2022-08-30T18:02:57.812Z,5.80
2022-08-30T18:05:29.007Z,6.77
2022-08-30T18:07:59.927Z,6.50
2022-08-30T18:10:34.511Z,6.70
2022-08-30T18:13:05.737Z,6.43
2022-08-30T18:15:36.625Z,6.40
2022-08-30T18:18:09.287Z,6.67
2022-08-30T18:20:42.597Z,6.13
2022-08-30T18:23:16.027Z,6.73
2022-08-30T18:26:14.195Z,6.50
2022-08-30T18:28:48.283Z,6.00
2022-08-30T18:31:19.719Z,5.40
2022-08-30T18:33:50.904Z,5.10
2022-08-30T18:36:21.950Z,5.83
2022-08-30T18:38:53.603Z,5.27
2022-08-30T18:41:25.212Z,5.87
2022-08-30T18:44:24.008Z,5.03
2022-08-30T18:46:56.420Z,5.73
2022-08-30T18:49:32.226Z,5.70
2022-08-30T18:52:07.400Z,5.17
2022-08-30T18:54:51.668Z,6.00
2022-08-30T18:57:24.928Z,5.13
2022-08-30T18:59:56.367Z,5.03
2022-08-30T19:02:27.740Z,5.10
2022-08-30T19:04:59.220Z,4.97
2022-08-30T19:07:34.509Z,5.00
2022-08-30T19:10:12.416Z,4.80
2022-08-30T19:12:43.510Z,5.57
2022-08-30T19:15:14.987Z,4.93
2022-08-30T19:17:47.896Z,4.73
2022-08-30T19:20:22.386Z,4.77
2022-08-30T19:23:09.194Z,4.47
2022-08-30T19:25:45.388Z,4.60
2022-08-30T19:28:24.440Z,5.20
2022-08-30T19:30:55.974Z,5.20
2022-08-30T19:33:27.027Z,5.30
2022-08-30T19:35:58.697Z,6.70
2022-08-30T19:38:29.626Z,5.53
2022-08-30T19:41:02.239Z,5.17
2022-08-30T19:43:33.179Z,6.87
2022-08-30T19:46:04.142Z,5.43
2022-08-30T19:48:40.640Z,4.60
2022-08-30T19:51:15.662Z,5.27
2022-08-30T19:53:46.961Z,4.50
2022-08-30T19:56:17.881Z,5.40
2022-08-30T19:58:48.887Z,5.80
2022-08-30T20:01:32.215Z,5.03
2022-08-30T20:04:04.751Z,5.40
2022-08-30T20:06:36.378Z,5.20
2022-08-30T20:09:10.444Z,5.20
2022-08-30T20:11:45.139Z,4.50
2022-08-30T20:14:20.326Z,5.00
2022-08-30T20:16:52.290Z,4.80
2022-08-30T20:19:27.375Z,6.40
2022-08-30T20:22:05.574Z,4.47
2022-08-30T20:24:39.420Z,4.70
2022-08-30T20:27:15.242Z,5.17
2022-08-30T20:29:46.611Z,5.50
2022-08-30T20:32:17.686Z,4.50
2022-08-30T20:34:48.620Z,4.63
2022-08-30T20:37:23.605Z,5.40
2022-08-30T20:39:57.682Z,4.83
2022-08-30T20:42:29.097Z,4.80
2022-08-30T20:45:00.374Z,5.47
2022-08-30T20:47:33.020Z,5.70
2022-08-30T20:50:13.406Z,5.57
2022-08-30T20:52:45.560Z,5.10
2022-08-30T20:55:17.536Z,4.20
2022-08-30T20:57:48.626Z,5.13
2022-08-30T21:00:19.841Z,5.47
2022-08-30T21:02:51.075Z,4.77
2022-08-30T21:05:22.475Z,5.07
2022-08-30T21:07:53.350Z,4.60
2022-08-30T21:10:24.584Z,4.90
2022-08-30T21:12:58.497Z,5.10
2022-08-30T21:15:38.034Z,4.70
2022-08-30T21:18:09.808Z,5.33
2022-08-30T21:20:41.163Z,5.07
2022-08-30T21:23:12.499Z,6.60
2022-08-30T21:25:44.161Z,5.50
2022-08-30T21:28:15.459Z,4.73
2022-08-30T21:30:49.001Z,4.77
2022-08-30T21:33:19.915Z,4.60
2022-08-30T21:36:09.478Z,5.50
2022-08-30T21:38:40.339Z,6.20
2022-08-30T21:41:12.746Z,4.80
2022-08-30T21:43:43.670Z,5.77
2022-08-30T21:46:16.294Z,5.80
2022-08-30T21:48:48.232Z,5.73
2022-08-30T21:51:20.434Z,5.17
2022-08-30T21:53:51.378Z,4.60
2022-08-30T21:56:23.260Z,4.77
2022-08-30T21:58:55.716Z,5.27
2022-08-30T22:01:29.598Z,5.37
2022-08-30T22:04:03.761Z,4.50
2022-08-30T22:06:37.417Z,4.63
2022-08-30T22:09:13.525Z,5.60
2022-08-30T22:11:45.249Z,5.03
2022-08-30T22:14:16.319Z,5.03
2022-08-30T22:16:48.367Z,5.10
2022-08-30T22:19:23.050Z,6.17
2022-08-30T22:22:00.807Z,4.77
2022-08-30T22:24:35.357Z,4.90
2022-08-30T22:27:07.279Z,5.27
2022-08-30T22:29:39.430Z,4.97
2022-08-30T22:32:13.311Z,4.60
2022-08-30T22:34:47.236Z,4.80
2022-08-30T22:37:20.939Z,4.53
2022-08-30T22:39:52.133Z,5.07
2022-08-30T22:42:23.042Z,5.13
2022-08-30T22:44:53.934Z,4.33
2022-08-30T22:47:24.806Z,5.20
2022-08-30T22:49:58.886Z,4.53
2022-08-30T22:52:30.049Z,4.40
2022-08-30T22:55:01.131Z,5.23
2022-08-30T22:57:35.037Z,4.23
2022-08-30T23:00:17.232Z,5.00
2022-08-30T23:02:53.431Z,5.30
2022-08-30T23:05:25.054Z,5.30
2022-08-30T23:07:56.015Z,4.87
2022-08-30T23:10:28.273Z,5.13
2022-08-30T23:13:00.206Z,5.30
2022-08-30T23:15:31.335Z,4.30
2022-08-30T23:18:03.041Z,5.10
2022-08-30T23:20:35.398Z,4.33
2022-08-30T23:23:06.357Z,4.10
2022-08-30T23:25:55.464Z,4.27
2022-08-30T23:28:45.042Z,4.97
2022-08-30T23:31:36.616Z,4.37
2022-08-30T23:34:25.875Z,4.73
2022-08-30T23:37:15.421Z,5.40
2022-08-30T23:40:05.011Z,4.37
2022-08-30T23:42:54.927Z,4.73
2022-08-30T23:45:44.688Z,4.50
2022-08-30T23:48:34.027Z,4.60
2022-08-30T23:51:23.997Z,4.40
2022-08-30T23:54:13.550Z,4.70
2022-08-30T23:57:02.845Z,5.10
2022-08-30T23:59:52.434Z,5.33
